Time;durP1;ratioP1;P1;durP2;ratioP2;P2;SDS_P1;SDS_P2;PMS_P1;PMS_P2;Temp;Humidity;BMP_temperature;BMP_pressure;BME280_temperature;BME280_humidity;BME280_pressure;Samples;Min_cycle;Max_cycle;Signal;HPM_P1;HPM_P2
2021/09/02 00:01:12;;;;;;;1999.90;999.90;;;;;;;11.98;55.96;102200.69;5025835;27;98712;-75
2021/09/02 00:03:39;;;;;;;1999.90;999.90;;;;;;;11.95;56.00;102195.22;5005541;27;97221;-75
2021/09/02 00:06:09;;;;;;;1999.90;999.90;;;;;;;11.91;55.82;102187.94;5008215;27;96919;-75
2021/09/02 00:08:37;;;;;;;1999.90;999.90;;;;;;;11.85;56.13;102188.63;5021621;27;99263;-76
2021/09/02 00:11:05;;;;;;;1999.90;999.90;;;;;;;11.82;56.24;102192.94;5026527;27;99535;-75
2021/09/02 00:13:32;;;;;;;1999.90;999.90;;;;;;;11.84;56.22;102192.16;5026413;27;96857;-75
2021/09/02 00:16:01;;;;;;;1999.90;999.90;;;;;;;11.85;56.31;102187.75;5028336;27;97299;-75
2021/09/02 00:18:29;;;;;;;1999.90;999.90;;;;;;;11.92;56.15;102187.13;5027247;27;99239;-75
2021/09/02 00:20:57;;;;;;;1999.90;999.90;;;;;;;12.00;56.04;102190.97;5026332;27;98803;-75
2021/09/02 00:23:27;;;;;;;1999.90;999.90;;;;;;;12.08;55.95;102181.50;5029095;27;96951;-75
2021/09/02 00:25:55;;;;;;;1999.90;999.90;;;;;;;12.17;55.73;102182.78;5024078;27;96881;-76
2021/09/02 00:28:23;;;;;;;1999.90;999.90;;;;;;;12.23;55.72;102181.19;5026599;27;97591;-76
2021/09/02 00:30:50;;;;;;;1999.90;999.90;;;;;;;12.27;55.46;102184.03;5027379;27;97492;-75
2021/09/02 00:33:19;;;;;;;1999.90;999.90;;;;;;;12.35;55.48;102182.53;5025274;27;97096;-75
2021/09/02 00:35:47;;;;;;;1999.90;999.90;;;;;;;12.42;55.40;102189.03;5030388;27;96949;-75
2021/09/02 00:38:15;;;;;;;1999.90;999.90;;;;;;;12.45;55.17;102186.44;5009503;27;97417;-75
2021/09/02 00:40:44;;;;;;;1999.90;999.90;;;;;;;12.50;55.26;102187.50;5028804;27;99116;-76
2021/09/02 00:43:12;;;;;;;1999.90;999.90;;;;;;;12.52;55.27;102184.06;5027883;27;96868;-75
2021/09/02 00:45:40;;;;;;;1999.90;999.90;;;;;;;12.51;55.22;102182.22;5014159;27;97423;-75
2021/09/02 00:48:08;;;;;;;1999.90;999.90;;;;;;;12.52;55.33;102191.16;5028093;27;100577;-75
2021/09/02 00:50:37;;;;;;;1999.90;999.90;;;;;;;12.58;55.14;102192.28;5033928;27;98239;-75
2021/09/02 00:53:05;;;;;;;1999.90;999.90;;;;;;;12.62;55.07;102196.88;5017756;27;96982;-75
2021/09/02 00:55:33;;;;;;;1999.90;999.90;;;;;;;12.67;55.05;102194.38;5030627;27;97096;-75
2021/09/02 00:58:03;;;;;;;1999.90;999.90;;;;;;;12.69;54.96;102200.69;5030641;27;97661;-75
2021/09/02 01:00:31;;;;;;;1999.90;999.90;;;;;;;12.66;55.11;102189.88;5029886;27;100140;-75
2021/09/02 01:02:59;;;;;;;1999.90;999.90;;;;;;;12.63;55.13;102197.78;5031850;27;96846;-75
2021/09/02 01:05:27;;;;;;;1999.90;999.90;;;;;;;12.59;55.33;102188.75;5033290;27;96915;-75
2021/09/02 01:07:56;;;;;;;1999.90;999.90;;;;;;;12.50;55.41;102193.78;5028513;27;96920;-75
2021/09/02 01:10:24;;;;;;;1999.90;999.90;;;;;;;12.40;55.50;102196.06;5013909;27;100414;-76
2021/09/02 01:12:52;;;;;;;1999.90;999.90;;;;;;;12.28;55.85;102195.59;5030074;27;96802;-76
2021/09/02 01:15:23;;;;;;;1999.90;999.90;;;;;;;12.18;56.01;102197.94;5040702;27;96844;-76
2021/09/02 01:17:53;;;;;;;1999.90;999.90;;;;;;;12.14;56.09;102197.75;5032527;27;96792;-76
2021/09/02 01:20:22;;;;;;;1999.90;999.90;;;;;;;12.16;56.02;102190.72;5031325;27;96750;-77
2021/09/02 01:22:51;;;;;;;1999.90;999.90;;;;;;;12.21;55.85;102194.47;5033653;27;96795;-76
2021/09/02 01:25:23;;;;;;;1999.90;999.90;;;;;;;12.22;56.03;102190.94;5047956;27;96839;-75
2021/09/02 01:27:53;;;;;;;1999.90;999.90;;;;;;;12.23;55.86;102191.88;5038197;27;100909;-76
2021/09/02 01:30:21;;;;;;;1999.90;999.90;;;;;;;12.26;55.83;102189.28;5034578;27;99794;-75
2021/09/02 01:32:50;;;;;;;1999.90;999.90;;;;;;;12.29;55.67;102192.97;5031100;27;96735;-76
2021/09/02 01:35:19;;;;;;;1999.90;999.90;;;;;;;12.34;55.74;102191.41;5028796;27;98388;-76
2021/09/02 01:37:48;;;;;;;1999.90;999.90;;;;;;;12.37;55.57;102187.94;5013961;27;97695;-76
2021/09/02 01:40:18;;;;;;;1999.90;999.90;;;;;;;12.40;55.52;102188.94;5032236;27;99733;-76
2021/09/02 01:42:47;;;;;;;1999.90;999.90;;;;;;;12.42;55.47;102189.91;5015042;27;96756;-76
2021/09/02 01:45:16;;;;;;;1999.90;999.90;;;;;;;12.42;55.54;102186.34;5029500;27;96968;-76
2021/09/02 01:47:44;;;;;;;1999.90;999.90;;;;;;;12.44;55.34;102192.63;5030527;27;99445;-77
2021/09/02 01:50:16;;;;;;;1999.90;999.90;;;;;;;12.45;55.44;102195.38;5028906;27;98984;-77
2021/09/02 01:52:44;;;;;;;1999.90;999.90;;;;;;;12.47;55.29;102195.44;5045893;27;96942;-77
2021/09/02 01:55:13;;;;;;;1999.90;999.90;;;;;;;12.51;55.31;102194.69;5032094;27;98033;-76
2021/09/02 01:57:42;;;;;;;1999.90;999.90;;;;;;;12.51;55.19;102194.69;5029919;27;99462;-76
2021/09/02 02:00:13;;;;;;;1999.90;999.90;;;;;;;12.50;55.26;102195.53;5039265;27;100434;-77
2021/09/02 02:02:41;;;;;;;1999.90;999.90;;;;;;;12.49;55.30;102197.28;5026428;27;97016;-75
2021/09/02 02:05:10;;;;;;;1999.90;999.90;;;;;;;12.45;55.45;102195.38;5012542;27;97155;-76
2021/09/02 02:07:39;;;;;;;1999.90;999.90;;;;;;;12.42;55.54;102203.25;5011905;27;100686;-75
2021/09/02 02:10:10;;;;;;;1999.90;999.90;;;;;;;12.28;55.55;102201.84;5016430;27;99690;-77
2021/09/02 02:12:39;;;;;;;1999.90;999.90;;;;;;;12.16;56.01;102214.72;5029192;27;97130;-75
2021/09/02 02:15:09;;;;;;;1999.90;999.90;;;;;;;12.11;55.95;102208.28;5027889;27;96922;-76
2021/09/02 02:17:38;;;;;;;1999.90;999.90;;;;;;;12.06;56.14;102205.47;5029595;27;97641;-75
2021/09/02 02:20:08;;;;;;;1999.90;999.90;;;;;;;12.02;56.20;102203.53;5028048;27;98687;-75
2021/09/02 02:22:36;;;;;;;1999.90;999.90;;;;;;;12.00;56.41;102201.63;5026814;27;96800;-76
2021/09/02 02:25:05;;;;;;;1999.90;999.90;;;;;;;11.92;56.33;102205.78;5029423;27;97514;-78
2021/09/02 02:27:34;;;;;;;1999.90;999.90;;;;;;;11.88;56.56;102204.78;5030996;27;98867;-77
2021/09/02 02:30:02;;;;;;;1999.90;999.90;;;;;;;11.85;56.50;102203.75;5030797;27;98962;-78
2021/09/02 02:32:30;;;;;;;1999.90;999.90;;;;;;;11.84;56.46;102200.16;5011845;27;96688;-78
2021/09/02 02:34:59;;;;;;;1999.90;999.90;;;;;;;11.88;56.51;102204.78;5013637;27;96756;-76
2021/09/02 02:37:27;;;;;;;1999.90;999.90;;;;;;;11.85;56.72;102201.06;5012371;27;99401;-76
2021/09/02 02:39:55;;;;;;;1999.90;999.90;;;;;;;11.82;56.64;102206.28;5046530;27;97713;-76
2021/09/02 02:42:23;;;;;;;1999.90;999.90;;;;;;;11.76;56.67;102201.59;5010798;27;97007;-76
2021/09/02 02:44:51;;;;;;;1999.90;999.90;;;;;;;11.70;56.76;102201.41;5030305;27;97583;-75
2021/09/02 02:47:19;;;;;;;1999.90;999.90;;;;;;;11.71;56.75;102200.53;5027095;27;100562;-75
2021/09/02 02:49:47;;;;;;;1999.90;999.90;;;;;;;11.72;56.70;102206.78;5009400;27;100851;-75
2021/09/02 02:52:16;;;;;;;1999.90;999.90;;;;;;;11.69;56.74;102204.88;5029229;27;96864;-76
2021/09/02 02:54:44;;;;;;;1999.90;999.90;;;;;;;11.66;56.83;102196.78;5028440;27;96761;-75
2021/09/02 02:57:12;;;;;;;1999.90;999.90;;;;;;;11.66;56.68;102198.53;5030555;27;100483;-76
2021/09/02 02:59:40;;;;;;;1999.90;999.90;;;;;;;11.66;56.99;102190.53;5034234;27;99456;-75
2021/09/02 03:02:08;;;;;;;1999.90;999.90;;;;;;;11.70;56.72;102201.41;5015865;27;97713;-75
2021/09/02 03:04:36;;;;;;;1999.90;999.90;;;;;;;11.72;56.79;102197.03;5021681;27;96829;-76
2021/09/02 03:07:04;;;;;;;1999.90;999.90;;;;;;;11.72;56.51;102202.38;5028338;27;97750;-75
2021/09/02 03:09:33;;;;;;;1999.90;999.90;;;;;;;11.76;56.75;102206.06;5032042;27;98634;-76
2021/09/02 03:12:01;;;;;;;1999.90;999.90;;;;;;;11.78;56.68;102197.25;5029301;27;96725;-76
2021/09/02 03:14:29;;;;;;;1999.90;999.90;;;;;;;11.85;56.32;102204.63;5030733;27;97183;-76
2021/09/02 03:16:57;;;;;;;1999.90;999.90;;;;;;;11.89;56.21;102206.56;5011330;27;101074;-75
2021/09/02 03:19:25;;;;;;;1999.90;999.90;;;;;;;11.88;56.25;102204.78;5029708;27;99492;-76
2021/09/02 03:21:53;;;;;;;1999.90;999.90;;;;;;;11.88;56.24;102210.09;5014089;27;96945;-76
2021/09/02 03:24:20;;;;;;;1999.90;999.90;;;;;;;11.87;56.27;102215.38;5030046;27;97261;-75
2021/09/02 03:26:50;;;;;;;1999.90;999.90;;;;;;;11.91;56.22;102214.63;5029215;27;97609;-78
2021/09/02 03:29:18;;;;;;;1999.90;999.90;;;;;;;11.93;56.21;102213.84;5029362;27;97758;-76
2021/09/02 03:31:45;;;;;;;1999.90;999.90;;;;;;;11.96;56.15;102216.63;5027401;27;96877;-76
2021/09/02 03:34:13;;;;;;;1999.90;999.90;;;;;;;11.95;56.12;102220.16;5031679;27;96868;-76
2021/09/02 03:36:45;;;;;;;1999.90;999.90;;;;;;;11.94;56.28;102220.97;5029604;27;99150;-76
2021/09/02 03:39:13;;;;;;;1999.90;999.90;;;;;;;11.93;56.26;102235.19;5031667;27;97908;-77
2021/09/02 03:41:41;;;;;;;1999.90;999.90;;;;;;;11.96;56.00;102223.75;5028580;27;96927;-77
2021/09/02 03:44:11;;;;;;;1999.90;999.90;;;;;;;11.98;56.02;102232.72;5021357;27;96877;-76
2021/09/02 03:46:39;;;;;;;1999.90;999.90;;;;;;;12.00;55.90;102229.22;5030618;27;98512;-76
2021/09/02 03:49:07;;;;;;;1999.90;999.90;;;;;;;12.03;55.80;102232.03;5013815;27;99180;-76
2021/09/02 03:51:35;;;;;;;1999.90;999.90;;;;;;;12.04;56.03;102231.19;5047502;27;96992;-80
2021/09/02 03:54:03;;;;;;;1999.90;999.90;;;;;;;12.07;55.75;102228.59;5032251;27;96593;-78
2021/09/02 03:56:31;;;;;;;1999.90;999.90;;;;;;;12.09;55.67;102231.34;5032367;27;100843;-77
2021/09/02 03:58:59;;;;;;;1999.90;999.90;;;;;;;12.12;55.54;102231.47;5033120;27;98554;-76
2021/09/02 04:01:28;;;;;;;1999.90;999.90;;;;;;;12.10;55.73;102223.41;5028928;27;96718;-78
2021/09/02 04:03:57;;;;;;;1999.90;999.90;;;;;;;12.07;55.84;102220.59;5030909;27;96829;-78
2021/09/02 04:06:24;;;;;;;1999.90;999.90;;;;;;;12.02;55.87;102224.88;5028864;27;100332;-77
2021/09/02 04:08:52;;;;;;;1999.90;999.90;;;;;;;11.95;56.24;102227.22;5015688;27;101071;-78
2021/09/02 04:11:20;;;;;;;1999.90;999.90;;;;;;;11.90;56.31;102226.16;5033293;27;96765;-79
2021/09/02 04:13:48;;;;;;;1999.90;999.90;;;;;;;11.88;56.28;102230.53;5019256;27;96800;-76
2021/09/02 04:16:16;;;;;;;1999.90;999.90;;;;;;;11.89;56.22;102227.03;5034209;27;99704;-78
2021/09/02 04:18:45;;;;;;;1999.90;999.90;;;;;;;11.92;56.29;102228.06;5016582;27;99356;-77
2021/09/02 04:21:13;;;;;;;1999.90;999.90;;;;;;;11.92;56.33;102222.72;5036901;27;97566;-78
2021/09/02 04:23:43;;;;;;;1999.90;999.90;;;;;;;11.90;56.13;102229.75;5035345;27;96823;-78
2021/09/02 04:26:11;;;;;;;1999.90;999.90;;;;;;;11.91;56.30;102228.88;5035896;27;96963;-77
2021/09/02 04:28:39;;;;;;;1999.90;999.90;;;;;;;12.01;55.97;102231.06;5037451;27;97743;-78
2021/09/02 04:31:07;;;;;;;1999.90;999.90;;;;;;;11.97;56.18;102231.78;5032467;27;96755;-75
2021/09/02 04:33:35;;;;;;;1999.90;999.90;;;;;;;11.99;56.16;102230.09;5015733;27;96849;-77
2021/09/02 04:36:05;;;;;;;1999.90;999.90;;;;;;;12.03;55.75;102226.69;5016655;27;99784;-77
2021/09/02 04:38:33;;;;;;;1999.90;999.90;;;;;;;12.05;55.62;102227.63;5014855;27;99840;-77
2021/09/02 04:41:01;;;;;;;1999.90;999.90;;;;;;;12.03;55.89;102236.47;5015632;27;96807;-76
2021/09/02 04:43:29;;;;;;;1999.90;999.90;;;;;;;11.97;55.83;102237.13;5036050;27;96837;-77
2021/09/02 04:45:58;;;;;;;1999.90;999.90;;;;;;;11.97;55.86;102239.78;5029989;27;98492;-78
2021/09/02 04:48:26;;;;;;;1999.90;999.90;;;;;;;12.00;56.02;102239.91;5015283;27;100834;-75
2021/09/02 04:50:55;;;;;;;1999.90;999.90;;;;;;;11.93;56.05;102240.53;5030741;27;96844;-76
2021/09/02 04:53:24;;;;;;;1999.90;999.90;;;;;;;11.92;56.08;102238.72;5013978;27;97257;-77
2021/09/02 04:55:52;;;;;;;1999.90;999.90;;;;;;;11.92;56.13;102236.06;5013400;27;99783;-77
2021/09/02 04:58:20;;;;;;;1999.90;999.90;;;;;;;11.93;56.17;102240.53;5028332;27;96906;-77
2021/09/02 05:00:48;;;;;;;1999.90;999.90;;;;;;;11.95;56.04;102232.56;5020390;27;96873;-79
2021/09/02 05:03:16;;;;;;;1999.90;999.90;;;;;;;11.94;56.08;102247.66;5013502;27;97571;-77
2021/09/02 05:05:44;;;;;;;1999.90;999.90;;;;;;;11.90;56.03;102244.84;5032717;27;100458;-78
2021/09/02 05:08:12;;;;;;;1999.90;999.90;;;;;;;11.82;56.30;102239.19;5028076;27;97630;-76
2021/09/02 05:10:41;;;;;;;1999.90;999.90;;;;;;;11.80;56.37;102243.56;5021832;27;96903;-78
2021/09/02 05:13:09;;;;;;;1999.90;999.90;;;;;;;11.81;56.02;102240.06;5011485;27;96865;-80
2021/09/02 05:15:37;;;;;;;1999.90;999.90;;;;;;;11.85;56.22;102244.63;5032779;27;97837;-77
2021/09/02 05:18:05;;;;;;;1999.90;999.90;;;;;;;11.88;56.23;102252.78;5032847;27;100248;-77
2021/09/02 05:20:33;;;;;;;1999.90;999.90;;;;;;;11.81;56.50;102249.81;5022250;27;96883;-77
2021/09/02 05:23:01;;;;;;;1999.90;999.90;;;;;;;11.76;56.33;102246.94;5029242;27;96930;-79
2021/09/02 05:25:29;;;;;;;1999.90;999.90;;;;;;;11.73;56.66;102257.50;5027736;27;98111;-79
2021/09/02 05:27:58;;;;;;;1999.90;999.90;;;;;;;11.68;56.96;102258.16;5010414;27;97747;-79
2021/09/02 05:30:26;;;;;;;1999.90;999.90;;;;;;;11.60;56.82;102249.84;5038318;27;97470;-77
2021/09/02 05:32:54;;;;;;;1999.90;999.90;;;;;;;11.58;56.79;102250.66;5013709;27;97789;-76
2021/09/02 05:35:22;;;;;;;1999.90;999.90;;;;;;;11.58;57.03;102251.53;5029851;27;99133;-76
2021/09/02 05:37:50;;;;;;;1999.90;999.90;;;;;;;11.62;56.76;102258.84;5030070;27;97577;-79
2021/09/02 05:40:18;;;;;;;1999.90;999.90;;;;;;;11.67;56.72;102254.59;5024448;27;96801;-76
2021/09/02 05:42:46;;;;;;;1999.90;999.90;;;;;;;11.69;56.50;102260.88;5042749;27;96990;-78
2021/09/02 05:45:16;;;;;;;1999.90;999.90;;;;;;;11.66;56.66;102254.53;5031260;27;97864;-77
2021/09/02 05:47:43;;;;;;;1999.90;999.90;;;;;;;11.63;56.88;102258.00;5032266;27;100077;-77
2021/09/02 05:50:11;;;;;;;1999.90;999.90;;;;;;;11.66;56.76;102255.44;5032715;27;97357;-77
2021/09/02 05:52:39;;;;;;;1999.90;999.90;;;;;;;11.67;56.85;102264.38;5016796;27;96896;-77
2021/09/02 05:55:09;;;;;;;1999.90;999.90;;;;;;;11.66;56.77;102263.44;5034559;27;99366;-78
2021/09/02 05:57:41;;;;;;;1999.90;999.90;;;;;;;11.67;56.83;102265.25;5032939;27;100668;-77
2021/09/02 06:00:11;;;;;;;1999.90;999.90;;;;;;;11.70;56.64;102252.06;5030916;27;97386;-77
2021/09/02 06:02:41;;;;;;;1999.90;999.90;;;;;;;11.70;56.66;102260.06;5036045;27;97406;-77
2021/09/02 06:05:10;;;;;;;1999.90;999.90;;;;;;;11.67;56.80;102269.69;5015592;27;100548;-77
2021/09/02 06:07:38;;;;;;;1999.90;999.90;;;;;;;11.65;56.79;102264.28;5025121;27;99560;-77
2021/09/02 06:10:07;;;;;;;1999.90;999.90;;;;;;;11.62;56.85;102273.91;5013310;27;97289;-77
2021/09/02 06:12:35;;;;;;;1999.90;999.90;;;;;;;11.61;56.93;102273.03;5014806;27;96843;-77
2021/09/02 06:15:03;;;;;;;1999.90;999.90;;;;;;;11.61;56.91;102275.69;5039988;27;100901;-77
2021/09/02 06:17:32;;;;;;;1999.90;999.90;;;;;;;11.65;56.76;102280.28;5033292;27;97310;-77
2021/09/02 06:20:01;;;;;;;1999.90;999.90;;;;;;;11.67;56.89;102278.59;5032351;27;97632;-78
2021/09/02 06:22:29;;;;;;;1999.90;999.90;;;;;;;11.73;56.92;102280.59;5052150;27;97517;-77
2021/09/02 06:24:58;;;;;;;1999.90;999.90;;;;;;;11.79;56.62;102273.75;5033917;27;100723;-77
2021/09/02 06:27:26;;;;;;;1999.90;999.90;;;;;;;11.84;56.39;102272.19;5029803;27;99713;-77
2021/09/02 06:29:54;;;;;;;1999.90;999.90;;;;;;;11.86;56.48;102270.47;5032349;27;97115;-77
2021/09/02 06:32:22;;;;;;;1999.90;999.90;;;;;;;11.86;56.43;102266.91;5033937;27;96886;-78
2021/09/02 06:34:50;;;;;;;1999.90;999.90;;;;;;;11.89;56.40;102265.25;5032324;27;99675;-78
2021/09/02 06:37:19;;;;;;;1999.90;999.90;;;;;;;11.93;56.42;102271.63;5015381;27;100617;-78
2021/09/02 06:39:47;;;;;;;1999.90;999.90;;;;;;;11.94;56.41;102270.78;5014391;27;97195;-78
2021/09/02 06:42:15;;;;;;;1999.90;999.90;;;;;;;11.93;56.21;102272.53;5033617;27;97259;-78
2021/09/02 06:44:43;;;;;;;1999.90;999.90;;;;;;;11.93;56.34;102282.28;5013845;27;99477;-77
2021/09/02 06:47:11;;;;;;;1999.90;999.90;;;;;;;11.83;56.54;102278.38;5033858;27;100295;-76
2021/09/02 06:49:39;;;;;;;1999.90;999.90;;;;;;;11.75;56.51;102282.47;5031677;27;96866;-77
2021/09/02 06:52:07;;;;;;;1999.90;999.90;;;;;;;11.76;56.71;102289.63;5032130;27;98642;-77
2021/09/02 06:54:36;;;;;;;1999.90;999.90;;;;;;;11.80;56.44;102286.22;5029958;27;99573;-77
2021/09/02 06:57:04;;;;;;;1999.90;999.90;;;;;;;11.83;56.21;102291.72;5031781;27;97594;-77
2021/09/02 06:59:32;;;;;;;1999.90;999.90;;;;;;;11.85;56.58;102291.78;5015427;27;96948;-77
2021/09/02 07:02:00;;;;;;;1999.90;999.90;;;;;;;11.82;56.53;102289.88;5033529;27;96822;-77
2021/09/02 07:04:28;;;;;;;1999.90;999.90;;;;;;;11.82;56.62;102302.28;5011471;27;99445;-77
2021/09/02 07:06:56;;;;;;;1999.90;999.90;;;;;;;11.81;56.55;102304.06;5031700;27;98864;-77
2021/09/02 07:09:24;;;;;;;1999.90;999.90;;;;;;;11.85;56.49;102311.31;5031028;27;96905;-77
2021/09/02 07:11:53;;;;;;;1999.90;999.90;;;;;;;11.88;56.56;102316.81;5030512;27;97366;-77
2021/09/02 07:14:21;;;;;;;1999.90;999.90;;;;;;;11.87;56.58;102309.63;5030166;27;100309;-77
2021/09/02 07:16:49;;;;;;;1999.90;999.90;;;;;;;11.85;56.60;102313.09;5029508;27;98634;-76
2021/09/02 07:19:17;;;;;;;1999.90;999.90;;;;;;;11.85;56.69;102326.44;5011856;27;96953;-77
2021/09/02 07:21:45;;;;;;;1999.90;999.90;;;;;;;11.89;56.52;102323.06;5028937;27;96915;-77
2021/09/02 07:24:13;;;;;;;1999.90;999.90;;;;;;;11.94;56.43;102322.38;5030489;27;99606;-77
2021/09/02 07:26:41;;;;;;;1999.90;999.90;;;;;;;11.99;56.47;102325.22;5014564;27;99654;-78
2021/09/02 07:29:10;;;;;;;1999.90;999.90;;;;;;;12.04;56.36;102328.97;5032384;27;96858;-77
2021/09/02 07:31:39;;;;;;;1999.90;999.90;;;;;;;12.05;56.29;102337.03;5028478;27;97247;-76
2021/09/02 07:34:07;;;;;;;1999.90;999.90;;;;;;;12.08;56.10;102342.53;5016286;27;100212;-77
2021/09/02 07:36:35;;;;;;;1999.90;999.90;;;;;;;12.13;56.08;102338.25;5030522;27;100759;-77
2021/09/02 07:39:11;;;;;;;1999.90;999.90;;;;;;;12.10;56.23;102355.91;5034002;27;96858;-77
2021/09/02 07:41:39;;;;;;;1999.90;999.90;;;;;;;12.03;56.27;102349.44;5032768;27;96775;-78
2021/09/02 07:44:07;;;;;;;1999.90;999.90;;;;;;;12.03;56.36;102349.44;5014210;27;100467;-77
2021/09/02 07:46:36;;;;;;;1999.90;999.90;;;;;;;12.06;56.39;102360.22;5031405;27;99708;-77
2021/09/02 07:49:04;;;;;;;1999.90;999.90;;;;;;;12.09;56.34;102355.00;5012129;27;97251;-77
2021/09/02 07:51:32;;;;;;;1999.90;999.90;;;;;;;12.14;56.14;102358.75;5027430;27;96964;-77
2021/09/02 07:54:00;;;;;;;1999.90;999.90;;;;;;;12.18;55.94;102355.41;5014442;27;99332;-77
2021/09/02 07:56:28;;;;;;;1999.90;999.90;;;;;;;12.19;56.01;102359.00;5026809;27;100582;-77
2021/09/02 07:58:56;;;;;;;1999.90;999.90;;;;;;;12.21;56.20;102362.63;5029477;27;96936;-77
2021/09/02 08:01:24;;;;;;;1999.90;999.90;;;;;;;12.25;56.02;102358.31;5028230;27;96773;-77
2021/09/02 08:03:54;;;;;;;1999.90;999.90;;;;;;;12.21;56.07;102365.31;5027293;27;99699;-77
2021/09/02 08:06:21;;;;;;;1999.90;999.90;;;;;;;12.19;56.10;102367.00;5028367;27;97937;-77
2021/09/02 08:08:49;;;;;;;1999.90;999.90;;;;;;;12.15;56.21;102360.59;5030781;27;97180;-78
2021/09/02 08:11:18;;;;;;;1999.90;999.90;;;;;;;12.06;56.54;102365.56;5036712;27;96957;-77
2021/09/02 08:13:46;;;;;;;1999.90;999.90;;;;;;;11.98;56.59;102372.34;5028442;27;98901;-78
2021/09/02 08:16:14;;;;;;;1999.90;999.90;;;;;;;11.98;56.53;102372.34;5027033;27;99414;-78
2021/09/02 08:18:42;;;;;;;1999.90;999.90;;;;;;;11.98;56.47;102367.00;5030983;27;96837;-77
2021/09/02 08:21:11;;;;;;;1999.90;999.90;;;;;;;12.01;56.66;102372.47;5011875;27;96829;-77
2021/09/02 08:23:39;;;;;;;1999.90;999.90;;;;;;;12.07;56.43;102371.81;5011620;27;99645;-77
2021/09/02 08:26:07;;;;;;;1999.90;999.90;;;;;;;12.10;56.32;102378.19;5039742;27;99076;-77
2021/09/02 08:28:35;;;;;;;1999.90;999.90;;;;;;;12.15;56.25;102373.03;5006327;27;96943;-77
2021/09/02 08:31:03;;;;;;;1999.90;999.90;;;;;;;12.22;56.11;102375.09;5026531;27;96854;-77
2021/09/02 08:33:31;;;;;;;1999.90;999.90;;;;;;;12.25;56.16;102385.94;5013331;27;100719;-77
2021/09/02 08:35:59;;;;;;;1999.90;999.90;;;;;;;12.17;56.10;102379.38;5010932;27;99220;-76
2021/09/02 08:38:28;;;;;;;1999.90;999.90;;;;;;;12.08;56.29;102378.97;5008152;27;96894;-77
2021/09/02 08:40:56;;;;;;;1999.90;999.90;;;;;;;11.98;56.51;102387.47;5011416;27;97110;-77
2021/09/02 08:43:24;;;;;;;1999.90;999.90;;;;;;;11.94;56.53;102389.06;5028478;27;100014;-76
2021/09/02 08:46:11;;;;;;;1999.90;999.90;;;;;;;11.92;56.70;102382.78;5029142;27;100498;-76
2021/09/02 08:48:40;;;;;;;1999.90;999.90;;;;;;;11.96;56.44;102381.16;5008978;27;96772;-77
2021/09/02 08:51:08;;;;;;;1999.90;999.90;;;;;;;11.96;56.53;102384.69;5032796;27;96862;-77
2021/09/02 08:53:38;;;;;;;1999.90;999.90;;;;;;;11.97;56.68;102378.53;5029495;27;98791;-79
2021/09/02 08:56:06;;;;;;;1999.90;999.90;;;;;;;11.99;56.50;102379.50;5028671;27;100961;-77
2021/09/02 08:58:33;;;;;;;1999.90;999.90;;;;;;;12.01;56.58;102375.16;5031958;27;96919;-76
2021/09/02 09:01:02;;;;;;;1999.90;999.90;;;;;;;12.06;56.43;102373.56;5031001;27;97077;-77
2021/09/02 09:03:31;;;;;;;1999.90;999.90;;;;;;;12.13;56.27;102372.03;5032332;27;97888;-76
2021/09/02 09:06:04;;;;;;;1999.90;999.90;;;;;;;12.18;56.31;102366.06;5036107;27;99673;-77
2021/09/02 09:08:35;;;;;;;1999.90;999.90;;;;;;;12.27;55.98;102364.63;5034531;27;97040;-77
2021/09/02 09:11:18;;;;;;;1999.90;999.90;;;;;;;12.33;56.12;102364.88;5024582;27;96902;-77
2021/09/02 09:13:46;;;;;;;1999.90;999.90;;;;;;;12.40;55.67;102362.47;5031931;27;98041;-77
2021/09/02 09:16:14;;;;;;;1999.90;999.90;;;;;;;12.46;55.66;102369.81;5031060;27;97908;-77
2021/09/02 09:18:44;;;;;;;1999.90;999.90;;;;;;;12.44;55.81;102374.19;5029342;27;96990;-77
2021/09/02 09:21:15;;;;;;;1999.90;999.90;;;;;;;12.46;55.74;102380.50;5034147;27;97413;-76
2021/09/02 09:23:57;;;;;;;1999.90;999.90;;;;;;;12.50;55.63;102382.44;5014662;27;100917;-76
2021/09/02 09:26:27;;;;;;;1999.90;999.90;;;;;;;12.48;55.56;102386.81;5034421;27;99348;-76
2021/09/02 09:28:57;;;;;;;1999.90;999.90;;;;;;;12.49;55.60;102383.31;5031960;27;96813;-76
2021/09/02 09:31:27;;;;;;;1999.90;999.90;;;;;;;12.56;55.28;102380.03;5026960;27;96847;-77
2021/09/02 09:33:56;;;;;;;1999.90;999.90;;;;;;;12.62;55.28;102382.94;5033600;27;99583;-76
2021/09/02 09:36:25;;;;;;;1999.90;999.90;;;;;;;12.63;55.21;102379.41;5032875;27;99083;-77
2021/09/02 09:39:01;;;;;;;1999.90;999.90;;;;;;;12.63;55.25;102374.06;5014429;27;96863;-77
2021/09/02 09:41:39;;;;;;;1999.90;999.90;;;;;;;12.65;55.17;102381.28;5032616;27;97011;-77
2021/09/02 09:44:18;;;;;;;1999.90;999.90;;;;;;;12.56;55.31;102372.94;5040469;27;99949;-77
2021/09/02 09:47:09;;;;;;;1999.90;999.90;;;;;;;12.55;55.28;102378.19;5017034;27;100222;-77
2021/09/02 09:49:46;;;;;;;1999.90;999.90;;;;;;;12.59;55.28;102372.13;5021298;27;96905;-77
2021/09/02 09:52:25;;;;;;;1999.90;999.90;;;;;;;12.57;55.40;102377.41;5051056;27;96815;-77
2021/09/02 09:54:58;;;;;;;1999.90;999.90;;;;;;;12.53;55.23;102377.25;5013665;27;99475;-76
2021/09/02 09:57:30;;;;;;;1999.90;999.90;;;;;;;12.50;55.35;102374.44;5014354;27;98305;-77
2021/09/02 10:00:01;;;;;;;1999.90;999.90;;;;;;;12.50;55.50;102369.09;5040133;27;96833;-77
2021/09/02 10:02:40;;;;;;;1999.90;999.90;;;;;;;12.54;55.46;102363.03;5023149;27;96912;-77
2021/09/02 10:05:13;;;;;;;1999.90;999.90;;;;;;;12.62;55.25;102367.78;5030404;27;97875;-77
2021/09/02 10:07:42;;;;;;;1999.90;999.90;;;;;;;12.70;55.14;102365.41;5030097;27;101087;-77
2021/09/02 10:10:13;;;;;;;1999.90;999.90;;;;;;;13.05;54.21;102362.31;5024347;27;96804;-76
2021/09/02 10:12:44;;;;;;;1999.90;999.90;;;;;;;12.97;54.53;102371.78;5028603;27;97041;-76
2021/09/02 10:15:13;;;;;;;1999.90;999.90;;;;;;;12.95;54.62;102382.41;5013077;27;99700;-77
2021/09/02 10:17:42;;;;;;;1999.90;999.90;;;;;;;12.92;54.71;102379.66;5008023;27;100842;-77
2021/09/02 10:20:15;;;;;;;1999.90;999.90;;;;;;;12.88;54.76;102379.47;5009683;27;97111;-77
2021/09/02 10:22:43;;;;;;;1999.90;999.90;;;;;;;12.91;54.79;102383.16;5011746;27;96963;-77
2021/09/02 10:25:38;;;;;;;1999.90;999.90;;;;;;;12.95;55.00;102374.41;5025980;27;99779;-76
2021/09/02 10:28:10;;;;;;;1999.90;999.90;;;;;;;13.06;54.54;102372.16;5028134;27;97907;-77
2021/09/02 10:30:43;;;;;;;1999.90;999.90;;;;;;;13.14;54.37;102370.66;5023394;27;96930;-77
2021/09/02 10:33:38;;;;;;;1999.90;999.90;;;;;;;13.20;54.60;102373.56;5016449;27;96456;-77
2021/09/02 10:36:41;;;;;;;1999.90;999.90;;;;;;;13.24;54.34;102369.25;5034746;27;99344;-77
2021/09/02 10:39:09;;;;;;;1999.90;999.90;;;;;;;13.32;54.25;102374.00;5029102;27;100749;-77
2021/09/02 10:41:48;;;;;;;1999.90;999.90;;;;;;;13.31;54.23;102377.53;5026375;27;96842;-78
2021/09/02 10:44:22;;;;;;;1999.90;999.90;;;;;;;13.37;54.08;102371.50;5029416;27;98123;-77
2021/09/02 10:46:55;;;;;;;1999.90;999.90;;;;;;;13.41;54.01;102371.63;5033015;27;97843;-77
2021/09/02 10:49:26;;;;;;;1999.90;999.90;;;;;;;13.47;53.71;102374.53;5017154;27;100465;-77
2021/09/02 10:52:00;;;;;;;1999.90;999.90;;;;;;;13.50;53.54;102366.59;5017900;27;97127;-77
2021/09/02 10:54:30;;;;;;;1999.90;999.90;;;;;;;13.53;53.84;102358.69;5042552;27;96863;-77